Time;durP1;ratioP1;P1;durP2;ratioP2;P2;SDS_P1;SDS_P2;PMS_P1;PMS_P2;Temp;Humidity;BMP_temperature;BMP_pressure;BME280_temperature;BME280_humidity;BME280_pressure;Samples;Min_cycle;Max_cycle;Signal;HPM_P1;HPM_P2
2022/05/27 00:01:08;;;;;;;;;0.00;0.00;;;;;;;;5075818;27;45439;-70
2022/05/27 00:03:33;;;;;;;;;0.67;0.67;;;;;;;;5061635;28;45382;-70
2022/05/27 00:05:58;;;;;;;;;1.00;1.00;;;;;;;;5061061;28;45272;-69
2022/05/27 00:08:25;;;;;;;;;1.00;1.00;;;;;;;;5058793;27;47504;-70
2022/05/27 00:10:50;;;;;;;;;0.33;0.33;;;;;;;;5072144;27;45379;-70
2022/05/27 00:13:16;;;;;;;;;0.00;0.00;;;;;;;;5072186;27;45492;-70
2022/05/27 00:15:41;;;;;;;;;1.00;1.00;;;;;;;;5065570;27;45288;-70
2022/05/27 00:18:06;;;;;;;;;0.00;0.00;;;;;;;;5069104;28;46434;-70
2022/05/27 00:20:31;;;;;;;;;0.00;0.00;;;;;;;;5069148;27;45386;-70
2022/05/27 00:22:57;;;;;;;;;1.67;1.00;;;;;;;;5073183;27;45393;-70
2022/05/27 00:25:22;;;;;;;;;0.00;0.00;;;;;;;;5090346;27;46167;-70
2022/05/27 00:27:47;;;;;;;;;1.00;1.00;;;;;;;;5071477;27;45349;-70
2022/05/27 00:30:12;;;;;;;;;1.00;1.00;;;;;;;;5063107;28;45407;-70
2022/05/27 00:32:38;;;;;;;;;0.00;0.00;;;;;;;;5063317;27;45361;-70
2022/05/27 00:35:03;;;;;;;;;1.00;0.00;;;;;;;;5068972;28;45569;-70
2022/05/27 00:37:29;;;;;;;;;1.00;1.00;;;;;;;;5072365;28;46502;-70
2022/05/27 00:39:56;;;;;;;;;0.00;0.00;;;;;;;;5066636;27;45351;-70
2022/05/27 00:42:21;;;;;;;;;0.67;0.00;;;;;;;;5069382;27;45690;-70
2022/05/27 00:44:46;;;;;;;;;0.00;0.00;;;;;;;;5068198;28;45506;-70
2022/05/27 00:47:14;;;;;;;;;0.00;0.00;;;;;;;;5061294;27;46763;-70
2022/05/27 00:49:50;;;;;;;;;2.00;0.33;;;;;;;;5088855;27;45610;-70
2022/05/27 00:52:17;;;;;;;;;0.00;0.00;;;;;;;;5072579;27;45425;-70
2022/05/27 00:54:43;;;;;;;;;1.00;0.00;;;;;;;;5062085;27;45268;-70
2022/05/27 00:57:17;;;;;;;;;0.33;0.33;;;;;;;;5064736;27;46403;-70
2022/05/27 00:59:45;;;;;;;;;1.00;1.00;;;;;;;;5068948;28;45660;-70
2022/05/27 01:02:10;;;;;;;;;0.00;0.00;;;;;;;;5068752;28;45421;-70
2022/05/27 01:04:36;;;;;;;;;0.00;0.00;;;;;;;;5078292;27;45526;-71
2022/05/27 01:07:02;;;;;;;;;1.00;1.00;;;;;;;;5071352;28;46686;-71
2022/05/27 01:09:29;;;;;;;;;1.00;1.00;;;;;;;;5068685;28;45331;-71
2022/05/27 01:12:03;;;;;;;;;1.00;1.00;;;;;;;;5069052;27;45339;-71
2022/05/27 01:14:46;;;;;;;;;0.00;0.00;;;;;;;;5068720;27;45287;-71
2022/05/27 01:17:20;;;;;;;;;1.00;1.00;;;;;;;;5068436;28;47225;-70
2022/05/27 01:20:20;;;;;;;;;0.00;0.00;;;;;;;;5070279;27;45411;-70
2022/05/27 01:22:57;;;;;;;;;0.00;0.00;;;;;;;;5059070;28;45490;-70
2022/05/27 01:25:37;;;;;;;;;0.00;0.00;;;;;;;;5077888;27;45461;-70
2022/05/27 01:28:18;;;;;;;;;0.00;0.00;;;;;;;;5081955;27;45603;-70
2022/05/27 01:30:48;;;;;;;;;1.00;0.00;;;;;;;;5074108;28;45361;-70
2022/05/27 01:33:27;;;;;;;;;0.00;0.00;;;;;;;;5077794;27;45877;-70
2022/05/27 01:35:52;;;;;;;;;0.00;0.00;;;;;;;;5082897;27;45304;-70
2022/05/27 01:38:36;;;;;;;;;0.00;0.00;;;;;;;;5082191;27;46429;-71
2022/05/27 01:41:07;;;;;;;;;2.00;0.00;;;;;;;;5075388;27;45540;-70
2022/05/27 01:43:47;;;;;;;;;0.00;0.00;;;;;;;;5060067;27;45433;-70
2022/05/27 01:46:15;;;;;;;;;0.00;0.00;;;;;;;;5074731;28;45288;-71
2022/05/27 01:48:47;;;;;;;;;0.00;0.00;;;;;;;;5073092;28;46681;-70
2022/05/27 01:51:34;;;;;;;;;0.67;0.67;;;;;;;;5066137;27;45378;-71
2022/05/27 01:54:05;;;;;;;;;0.00;0.00;;;;;;;;5063535;28;45555;-70
2022/05/27 01:56:33;;;;;;;;;1.00;1.00;;;;;;;;5063015;28;45291;-70
2022/05/27 01:59:01;;;;;;;;;0.00;0.00;;;;;;;;5071637;28;47533;-70
2022/05/27 02:01:28;;;;;;;;;2.00;0.67;;;;;;;;5075899;27;45440;-71
2022/05/27 02:03:58;;;;;;;;;0.33;0.33;;;;;;;;5073731;28;45448;-71
2022/05/27 02:06:36;;;;;;;;;0.00;0.00;;;;;;;;5071618;28;45465;-71
2022/05/27 02:09:05;;;;;;;;;1.00;0.00;;;;;;;;5072993;27;46492;-70
2022/05/27 02:11:31;;;;;;;;;0.00;0.00;;;;;;;;5071477;27;45494;-70
2022/05/27 02:14:11;;;;;;;;;0.00;0.00;;;;;;;;5059987;28;45248;-70
2022/05/27 02:16:39;;;;;;;;;1.00;1.00;;;;;;;;5075253;27;45422;-70
2022/05/27 02:19:05;;;;;;;;;2.33;0.33;;;;;;;;5073666;28;45628;-70
2022/05/27 02:21:34;;;;;;;;;0.00;0.00;;;;;;;;5062932;28;45336;-70
2022/05/27 02:24:06;;;;;;;;;0.00;0.00;;;;;;;;5067110;27;45460;-70
2022/05/27 02:26:33;;;;;;;;;1.00;1.00;;;;;;;;5071182;28;45656;-70
2022/05/27 02:29:00;;;;;;;;;0.00;0.00;;;;;;;;5072000;28;47307;-70
2022/05/27 02:31:28;;;;;;;;;0.00;0.00;;;;;;;;5076288;27;45412;-70
2022/05/27 02:36:49;;;;;;;;;1.00;1.00;;;;;;;;5072468;28;45473;-70
2022/05/27 02:39:14;;;;;;;;;0.33;0.33;;;;;;;;5062212;27;45733;-70
2022/05/27 02:41:43;;;;;;;;;1.00;1.00;;;;;;;;5071251;27;45464;-70
2022/05/27 02:44:17;;;;;;;;;0.00;0.00;;;;;;;;5072181;28;45410;-70
2022/05/27 02:46:43;;;;;;;;;0.00;0.00;;;;;;;;5074285;28;45233;-70
2022/05/27 02:49:17;;;;;;;;;0.00;0.00;;;;;;;;5089195;27;46285;-71
2022/05/27 02:51:42;;;;;;;;;1.67;1.00;;;;;;;;5072746;28;45325;-70
2022/05/27 02:54:15;;;;;;;;;0.33;0.33;;;;;;;;5070792;28;45477;-71
2022/05/27 02:56:50;;;;;;;;;2.00;1.00;;;;;;;;5069471;27;45384;-70
2022/05/27 02:59:17;;;;;;;;;1.67;0.33;;;;;;;;5072516;28;45511;-70
2022/05/27 03:01:42;;;;;;;;;0.00;0.00;;;;;;;;5059103;28;45560;-70
2022/05/27 03:04:07;;;;;;;;;1.67;0.33;;;;;;;;5073364;27;45411;-70
2022/05/27 03:06:33;;;;;;;;;0.67;0.67;;;;;;;;5062643;28;45472;-71
2022/05/27 03:08:58;;;;;;;;;1.00;1.00;;;;;;;;5066224;28;46160;-70
2022/05/27 03:11:32;;;;;;;;;2.00;1.00;;;;;;;;5074795;27;45468;-70
2022/05/27 03:13:57;;;;;;;;;0.00;0.00;;;;;;;;5073834;28;45299;-70
2022/05/27 03:16:48;;;;;;;;;1.33;0.00;;;;;;;;5058700;28;45359;-70
2022/05/27 03:19:31;;;;;;;;;1.33;0.00;;;;;;;;5077962;27;45611;-71
2022/05/27 03:22:11;;;;;;;;;1.00;1.00;;;;;;;;5061437;28;45393;-71
2022/05/27 03:24:37;;;;;;;;;0.00;0.00;;;;;;;;5066711;28;45462;-71
2022/05/27 03:27:13;;;;;;;;;1.00;1.00;;;;;;;;5063909;28;45401;-70
2022/05/27 03:29:38;;;;;;;;;0.00;0.00;;;;;;;;5076255;27;46694;-70
2022/05/27 03:32:06;;;;;;;;;2.33;0.00;;;;;;;;5060594;28;45493;-70
2022/05/27 03:34:39;;;;;;;;;0.33;0.00;;;;;;;;5058626;28;45410;-71
2022/05/27 03:37:07;;;;;;;;;0.33;0.00;;;;;;;;5073337;27;45409;-70
2022/05/27 03:39:40;;;;;;;;;0.00;0.00;;;;;;;;5061508;28;46636;-71
2022/05/27 03:42:06;;;;;;;;;0.00;0.00;;;;;;;;5066631;28;45441;-70
2022/05/27 03:44:32;;;;;;;;;0.00;0.00;;;;;;;;5071174;27;45574;-70
2022/05/27 03:46:58;;;;;;;;;0.67;0.67;;;;;;;;5070027;28;45449;-70
2022/05/27 03:49:23;;;;;;;;;1.00;1.00;;;;;;;;5089404;27;46406;-70
2022/05/27 03:51:51;;;;;;;;;1.00;1.00;;;;;;;;5072230;27;45473;-70
2022/05/27 03:54:17;;;;;;;;;2.00;0.00;;;;;;;;5069856;28;45550;-70
2022/05/27 03:56:42;;;;;;;;;1.33;0.67;;;;;;;;5071582;27;45233;-70
2022/05/27 03:59:09;;;;;;;;;0.00;0.00;;;;;;;;5069721;28;45447;-70
2022/05/27 04:01:35;;;;;;;;;0.33;0.33;;;;;;;;5057950;28;45572;-70
2022/05/27 04:04:02;;;;;;;;;3.33;0.00;;;;;;;;5079002;27;45331;-70
2022/05/27 04:06:27;;;;;;;;;0.00;0.00;;;;;;;;5070299;27;45572;-70
2022/05/27 04:08:53;;;;;;;;;0.67;0.67;;;;;;;;5065908;27;45330;-70
2022/05/27 04:11:19;;;;;;;;;1.00;1.00;;;;;;;;5059905;27;45509;-70
2022/05/27 04:13:44;;;;;;;;;1.00;1.00;;;;;;;;5073027;27;45619;-70
2022/05/27 04:16:10;;;;;;;;;1.33;0.00;;;;;;;;5056010;28;45321;-71
2022/05/27 04:18:35;;;;;;;;;1.33;1.00;;;;;;;;5070129;28;46542;-70
2022/05/27 04:21:00;;;;;;;;;1.00;1.00;;;;;;;;5071394;27;45495;-70
2022/05/27 04:23:25;;;;;;;;;2.00;1.00;;;;;;;;5069547;28;45575;-70
2022/05/27 04:25:50;;;;;;;;;1.00;1.00;;;;;;;;5072104;28;45344;-70
2022/05/27 04:28:16;;;;;;;;;0.00;0.00;;;;;;;;5063358;27;45777;-70
2022/05/27 04:30:41;;;;;;;;;0.00;0.00;;;;;;;;5071168;28;45244;-71
2022/05/27 04:33:07;;;;;;;;;1.67;0.33;;;;;;;;5064304;28;45602;-70
2022/05/27 04:35:33;;;;;;;;;1.00;0.00;;;;;;;;5061539;27;45489;-70
2022/05/27 04:37:58;;;;;;;;;0.00;0.00;;;;;;;;5070829;28;45367;-70
2022/05/27 04:40:23;;;;;;;;;1.33;1.00;;;;;;;;5072841;28;45662;-71
2022/05/27 04:42:48;;;;;;;;;0.33;0.33;;;;;;;;5058621;28;45521;-71
2022/05/27 04:45:13;;;;;;;;;0.00;0.00;;;;;;;;5068818;27;45533;-70
2022/05/27 04:47:39;;;;;;;;;3.00;2.00;;;;;;;;5075126;27;45535;-70
2022/05/27 04:50:06;;;;;;;;;1.00;1.00;;;;;;;;5082018;27;45496;-70
2022/05/27 04:52:32;;;;;;;;;0.67;0.67;;;;;;;;5087849;27;45437;-71
2022/05/27 04:54:58;;;;;;;;;2.00;0.00;;;;;;;;5059854;28;45385;-70
2022/05/27 04:57:26;;;;;;;;;0.67;0.67;;;;;;;;5067500;27;46299;-71
2022/05/27 04:59:51;;;;;;;;;0.33;0.33;;;;;;;;5079569;27;45437;-70
2022/05/27 05:02:18;;;;;;;;;2.67;1.00;;;;;;;;5079488;27;45480;-71
2022/05/27 05:04:43;;;;;;;;;1.00;1.00;;;;;;;;5071866;28;45372;-71
2022/05/27 05:07:08;;;;;;;;;0.00;0.00;;;;;;;;5073652;27;46424;-71
2022/05/27 05:09:34;;;;;;;;;1.33;0.67;;;;;;;;5069680;27;45603;-70
2022/05/27 05:12:00;;;;;;;;;1.00;1.00;;;;;;;;5064540;27;45412;-70
2022/05/27 05:14:25;;;;;;;;;0.67;0.00;;;;;;;;5059767;28;51086;-70
2022/05/27 05:16:50;;;;;;;;;1.00;0.00;;;;;;;;5072473;27;45555;-71
2022/05/27 05:19:15;;;;;;;;;1.00;0.00;;;;;;;;5072158;27;45755;-70
2022/05/27 05:21:40;;;;;;;;;1.00;1.00;;;;;;;;5060184;28;45406;-70
2022/05/27 05:24:06;;;;;;;;;1.00;1.00;;;;;;;;5065400;27;45403;-70
2022/05/27 05:26:31;;;;;;;;;0.33;0.33;;;;;;;;5068265;27;45468;-70
2022/05/27 05:28:56;;;;;;;;;1.33;0.67;;;;;;;;5057065;28;45322;-70
2022/05/27 05:31:21;;;;;;;;;2.00;0.67;;;;;;;;5076230;27;45638;-71
2022/05/27 05:33:47;;;;;;;;;0.33;0.00;;;;;;;;5059850;28;45260;-70
2022/05/27 05:36:12;;;;;;;;;0.33;0.00;;;;;;;;5065643;28;46957;-70
2022/05/27 05:38:38;;;;;;;;;1.00;1.00;;;;;;;;5068444;28;45544;-70
2022/05/27 05:41:03;;;;;;;;;0.00;0.00;;;;;;;;5069429;27;45596;-70
2022/05/27 05:43:29;;;;;;;;;0.00;0.00;;;;;;;;5072582;28;45476;-70
2022/05/27 05:45:54;;;;;;;;;1.00;1.00;;;;;;;;5070918;28;45404;-70
2022/05/27 05:48:19;;;;;;;;;1.67;1.00;;;;;;;;5068644;27;45532;-73
2022/05/27 05:50:44;;;;;;;;;1.00;1.00;;;;;;;;5066786;28;45339;-75
2022/05/27 05:53:09;;;;;;;;;1.00;1.00;;;;;;;;5060072;28;45423;-75
2022/05/27 05:55:35;;;;;;;;;0.67;0.67;;;;;;;;5056127;27;45381;-76
2022/05/27 05:58:01;;;;;;;;;1.00;1.00;;;;;;;;5059558;28;45338;-76
2022/05/27 06:00:26;;;;;;;;;1.00;1.00;;;;;;;;5075311;27;45363;-75
2022/05/27 06:02:52;;;;;;;;;1.00;1.00;;;;;;;;5069119;27;45466;-75
2022/05/27 06:05:18;;;;;;;;;1.00;1.00;;;;;;;;5070295;27;47157;-75
2022/05/27 06:07:44;;;;;;;;;0.00;0.00;;;;;;;;5057307;28;45622;-75
2022/05/27 06:10:10;;;;;;;;;1.67;1.00;;;;;;;;5082893;27;45429;-74
2022/05/27 06:12:36;;;;;;;;;1.00;1.00;;;;;;;;5072925;27;45350;-75
2022/05/27 06:15:02;;;;;;;;;1.00;1.00;;;;;;;;5071571;28;45397;-75
2022/05/27 06:17:28;;;;;;;;;0.00;0.00;;;;;;;;5079882;27;45383;-75
2022/05/27 06:19:53;;;;;;;;;1.00;1.00;;;;;;;;5075991;27;45454;-75
2022/05/27 06:22:19;;;;;;;;;2.33;1.00;;;;;;;;5074884;28;45288;-75
2022/05/27 06:24:44;;;;;;;;;1.00;0.33;;;;;;;;5073228;28;46825;-75
2022/05/27 06:27:10;;;;;;;;;1.00;1.00;;;;;;;;5071600;27;45396;-75
2022/05/27 06:35:03;;;;;;;;;0.33;0.33;;;;;;;;5072423;28;45872;-75
2022/05/27 06:37:29;;;;;;;;;1.00;1.00;;;;;;;;5078483;27;45449;-76
2022/05/27 06:39:54;;;;;;;;;1.00;1.00;;;;;;;;5084033;27;45413;-76
2022/05/27 06:42:19;;;;;;;;;2.00;1.00;;;;;;;;5063335;27;45461;-75
2022/05/27 06:44:44;;;;;;;;;2.00;1.00;;;;;;;;5067343;27;45508;-76
2022/05/27 06:47:11;;;;;;;;;1.00;1.00;;;;;;;;5071290;28;45344;-77
2022/05/27 06:49:37;;;;;;;;;0.33;0.33;;;;;;;;5090060;27;45483;-76
2022/05/27 06:52:03;;;;;;;;;0.67;0.67;;;;;;;;5077117;27;45362;-76
2022/05/27 06:54:28;;;;;;;;;2.00;0.67;;;;;;;;5069511;27;47337;-76
2022/05/27 06:56:53;;;;;;;;;1.33;1.00;;;;;;;;5070963;28;45258;-77
2022/05/27 06:59:20;;;;;;;;;1.00;1.00;;;;;;;;5075280;27;45747;-76
2022/05/27 07:01:45;;;;;;;;;1.33;1.33;;;;;;;;5089661;27;45313;-77
2022/05/27 07:04:11;;;;;;;;;0.00;0.00;;;;;;;;5073327;28;46137;-77
2022/05/27 07:06:41;;;;;;;;;1.00;1.00;;;;;;;;5062991;28;45331;-77
2022/05/27 07:09:07;;;;;;;;;1.67;0.33;;;;;;;;5066892;27;45266;-74
2022/05/27 07:11:33;;;;;;;;;1.00;1.00;;;;;;;;5070405;28;45593;-75
2022/05/27 07:13:58;;;;;;;;;0.67;0.67;;;;;;;;5072539;28;46852;-75
2022/05/27 07:16:24;;;;;;;;;1.00;1.00;;;;;;;;5078086;27;45496;-75
2022/05/27 07:18:49;;;;;;;;;0.00;0.00;;;;;;;;5073330;28;45590;-75
2022/05/27 07:21:14;;;;;;;;;0.33;0.33;;;;;;;;5064382;28;45460;-75
2022/05/27 07:23:40;;;;;;;;;1.00;1.00;;;;;;;;5070284;27;46734;-74
2022/05/27 07:26:05;;;;;;;;;1.00;0.67;;;;;;;;5086033;27;45601;-74
2022/05/27 07:28:30;;;;;;;;;0.33;0.33;;;;;;;;5058442;28;45375;-76
2022/05/27 07:30:56;;;;;;;;;0.00;0.00;;;;;;;;5061654;28;45556;-76
2022/05/27 07:33:22;;;;;;;;;0.00;0.00;;;;;;;;5070251;27;46028;-74
2022/05/27 07:35:47;;;;;;;;;1.00;1.00;;;;;;;;5070480;28;45429;-75
2022/05/27 07:38:13;;;;;;;;;0.67;0.67;;;;;;;;5070169;28;45423;-75
2022/05/27 07:40:38;;;;;;;;;1.00;1.00;;;;;;;;5082917;27;45312;-75
2022/05/27 07:43:04;;;;;;;;;1.33;0.67;;;;;;;;5073266;28;45985;-75
2022/05/27 07:45:29;;;;;;;;;2.00;1.00;;;;;;;;5077042;27;45401;-74
2022/05/27 07:47:55;;;;;;;;;1.00;1.00;;;;;;;;5081498;27;45400;-75
2022/05/27 07:50:21;;;;;;;;;1.00;1.00;;;;;;;;5082149;27;45308;-75
2022/05/27 07:52:47;;;;;;;;;1.00;1.00;;;;;;;;5065758;27;47113;-75
2022/05/27 07:55:13;;;;;;;;;2.00;0.00;;;;;;;;5058945;28;45250;-75
2022/05/27 07:57:42;;;;;;;;;1.00;1.00;;;;;;;;5073093;27;45297;-75
2022/05/27 08:00:09;;;;;;;;;0.00;0.00;;;;;;;;5069639;28;45564;-75
2022/05/27 08:02:34;;;;;;;;;1.00;1.00;;;;;;;;5069848;27;45298;-74
2022/05/27 08:04:59;;;;;;;;;1.00;1.00;;;;;;;;5066751;27;45263;-75
2022/05/27 08:07:26;;;;;;;;;0.67;0.67;;;;;;;;5072543;28;45320;-74
2022/05/27 08:09:51;;;;;;;;;1.00;1.00;;;;;;;;5061289;28;45532;-75
2022/05/27 08:12:17;;;;;;;;;1.67;1.00;;;;;;;;5079169;27;46236;-74
2022/05/27 08:14:42;;;;;;;;;1.67;1.00;;;;;;;;5076814;27;45445;-74
2022/05/27 08:17:07;;;;;;;;;1.00;1.00;;;;;;;;5072748;28;45407;-75
2022/05/27 08:19:33;;;;;;;;;2.00;0.00;;;;;;;;5084956;27;45477;-75
2022/05/27 08:21:58;;;;;;;;;1.00;1.00;;;;;;;;5071856;28;45375;-75
2022/05/27 08:24:24;;;;;;;;;1.00;1.00;;;;;;;;5079475;27;45541;-75
2022/05/27 08:26:49;;;;;;;;;0.00;0.00;;;;;;;;5075870;27;45365;-75
2022/05/27 08:29:15;;;;;;;;;1.00;1.00;;;;;;;;5069948;27;45553;-75
2022/05/27 08:31:40;;;;;;;;;1.00;1.00;;;;;;;;5073927;28;45357;-75
2022/05/27 08:39:35;;;;;;;;;1.33;1.33;;;;;;;;5069696;28;45331;-75
2022/05/27 08:42:14;;;;;;;;;1.00;1.00;;;;;;;;5069504;27;46151;-76
2022/05/27 08:44:39;;;;;;;;;1.00;1.00;;;;;;;;5071181;27;45644;-75
2022/05/27 08:47:14;;;;;;;;;1.00;1.00;;;;;;;;5072649;28;45318;-76
2022/05/27 08:49:42;;;;;;;;;0.67;0.67;;;;;;;;5056981;28;45513;-74
2022/05/27 08:52:22;;;;;;;;;0.00;0.00;;;;;;;;5074440;27;46308;-75
2022/05/27 08:54:50;;;;;;;;;1.33;0.33;;;;;;;;5069494;28;45456;-73
2022/05/27 08:59:59;;;;;;;;;1.00;0.67;;;;;;;;5075543;27;45463;-74
2022/05/27 09:02:35;;;;;;;;;2.33;1.00;;;;;;;;5078919;27;46098;-75
2022/05/27 09:05:01;;;;;;;;;1.00;1.00;;;;;;;;5070377;28;45332;-75
2022/05/27 09:07:38;;;;;;;;;0.00;0.00;;;;;;;;5075345;27;45748;-74
2022/05/27 09:10:06;;;;;;;;;1.00;1.00;;;;;;;;5071889;28;45710;-75
2022/05/27 09:12:40;;;;;;;;;1.00;1.00;;;;;;;;5069454;28;45351;-75
2022/05/27 09:15:26;;;;;;;;;1.00;1.00;;;;;;;;5068962;27;46203;-75
2022/05/27 09:18:00;;;;;;;;;1.00;1.00;;;;;;;;5066213;27;45446;-75
2022/05/27 09:20:34;;;;;;;;;1.00;1.00;;;;;;;;5060883;27;45442;-74
2022/05/27 09:22:59;;;;;;;;;1.67;1.00;;;;;;;;5057492;28;46229;-76
2022/05/27 09:25:28;;;;;;;;;1.00;1.00;;;;;;;;5088334;27;45405;-74
2022/05/27 09:28:10;;;;;;;;;1.00;1.00;;;;;;;;5060237;28;45394;-75
2022/05/27 09:30:36;;;;;;;;;0.00;0.00;;;;;;;;5060559;28;45537;-76
2022/05/27 09:33:09;;;;;;;;;1.00;1.00;;;;;;;;5066167;27;45965;-74
2022/05/27 09:35:43;;;;;;;;;0.33;0.33;;;;;;;;5068865;28;45465;-74
2022/05/27 09:38:12;;;;;;;;;0.67;0.67;;;;;;;;5067053;28;45364;-76
2022/05/27 09:40:40;;;;;;;;;1.00;1.00;;;;;;;;5065733;27;45418;-75
2022/05/27 09:43:13;;;;;;;;;0.67;0.67;;;;;;;;5084033;27;48236;-76
2022/05/27 09:45:40;;;;;;;;;1.00;1.00;;;;;;;;5071903;28;45350;-75
2022/05/27 09:48:06;;;;;;;;;0.00;0.00;;;;;;;;5078940;27;45291;-75
2022/05/27 09:50:40;;;;;;;;;0.00;0.00;;;;;;;;5081025;27;45636;-75
2022/05/27 09:53:05;;;;;;;;;0.00;0.00;;;;;;;;5085332;27;46351;-76
2022/05/27 09:55:31;;;;;;;;;2.00;0.67;;;;;;;;5077795;27;45393;-76
2022/05/27 09:58:00;;;;;;;;;2.33;0.00;;;;;;;;5063433;28;45438;-75
2022/05/27 10:00:43;;;;;;;;;1.00;1.00;;;;;;;;5063391;27;45422;-75
2022/05/27 10:03:23;;;;;;;;;0.00;0.00;;;;;;;;5062895;28;46061;-74
2022/05/27 10:06:11;;;;;;;;;0.33;0.33;;;;;;;;5065849;28;45361;-74
2022/05/27 10:08:40;;;;;;;;;1.00;1.00;;;;;;;;5067428;27;45447;-75
2022/05/27 10:11:10;;;;;;;;;1.00;1.00;;;;;;;;5060516;28;45421;-75
2022/05/27 10:13:35;;;;;;;;;1.00;1.00;;;;;;;;5092298;27;47216;-76
2022/05/27 10:16:24;;;;;;;;;1.33;1.33;;;;;;;;5073616;28;45468;-75
2022/05/27 10:19:04;;;;;;;;;1.00;1.00;;;;;;;;5071988;28;45338;-74
2022/05/27 10:21:31;;;;;;;;;1.00;1.00;;;;;;;;5074244;27;45210;-75
2022/05/27 10:24:12;;;;;;;;;1.00;1.00;;;;;;;;5071478;27;46196;-75
2022/05/27 10:26:37;;;;;;;;;1.00;1.00;;;;;;;;5069736;28;45360;-75
2022/05/27 10:29:06;;;;;;;;;1.00;1.00;;;;;;;;5068679;27;45521;-75
2022/05/27 10:31:32;;;;;;;;;0.67;0.67;;;;;;;;5075648;28;45611;-74
2022/05/27 10:33:58;;;;;;;;;0.67;0.67;;;;;;;;5083944;27;45374;-75
2022/05/27 10:36:35;;;;;;;;;1.00;1.00;;;;;;;;5082652;27;45429;-75
2022/05/27 10:39:02;;;;;;;;;1.00;1.00;;;;;;;;5069727;27;45346;-74
2022/05/27 10:41:36;;;;;;;;;1.00;1.00;;;;;;;;5062845;28;45570;-74
2022/05/27 10:44:05;;;;;;;;;0.67;0.33;;;;;;;;5062279;27;46955;-76
2022/05/27 10:46:32;;;;;;;;;0.67;0.67;;;;;;;;5074147;28;45293;-74
2022/05/27 10:49:00;;;;;;;;;1.00;1.00;;;;;;;;5062395;28;45549;-75
2022/05/27 10:51:38;;;;;;;;;0.00;0.00;;;;;;;;5071359;27;45433;-75
2022/05/27 10:54:03;;;;;;;;;0.00;0.00;;;;;;;;5071185;28;46162;-75
2022/05/27 10:56:38;;;;;;;;;1.00;1.00;;;;;;;;5070822;28;45502;-74
2022/05/27 11:02:12;;;;;;;;;1.33;1.33;;;;;;;;5059817;28;45349;-75
2022/05/27 11:04:40;;;;;;;;;0.00;0.00;;;;;;;;5059027;28;45436;-74
2022/05/27 11:07:15;;;;;;;;;1.00;1.00;;;;;;;;5080717;27;45423;-77
2022/05/27 11:09:47;;;;;;;;;1.00;1.00;;;;;;;;5080621;27;45406;-76
2022/05/27 11:12:27;;;;;;;;;1.00;1.00;;;;;;;;5073731;27;46213;-75
2022/05/27 11:15:15;;;;;;;;;0.33;0.33;;;;;;;;5067942;28;47433;-75
2022/05/27 11:17:50;;;;;;;;;0.00;0.00;;;;;;;;5063671;27;45407;-75
2022/05/27 11:20:36;;;;;;;;;0.33;0.33;;;;;;;;5073027;28;45376;-76
2022/05/27 11:23:15;;;;;;;;;0.00;0.00;;;;;;;;5059578;28;45541;-75
2022/05/27 11:25:58;;;;;;;;;1.00;0.33;;;;;;;;5057511;28;46302;-76
2022/05/27 11:28:38;;;;;;;;;1.00;0.67;;;;;;;;5058744;28;45458;-74
2022/05/27 11:31:12;;;;;;;;;1.00;1.00;;;;;;;;5079437;27;45496;-75
2022/05/27 11:33:44;;;;;;;;;0.00;0.00;;;;;;;;5073836;27;45498;-76
2022/05/27 11:36:23;;;;;;;;;0.00;0.00;;;;;;;;5069901;28;45378;-75
2022/05/27 11:38:51;;;;;;;;;0.00;0.00;;;;;;;;5073391;27;45370;-75
2022/05/27 11:41:43;;;;;;;;;2.00;0.00;;;;;;;;5078408;27;45342;-75
2022/05/27 11:44:08;;;;;;;;;2.00;2.00;;;;;;;;5081778;27;45592;-75
2022/05/27 11:46:40;;;;;;;;;1.00;1.00;;;;;;;;5058671;28;45490;-76
2022/05/27 11:49:17;;;;;;;;;0.00;0.00;;;;;;;;5088586;27;45973;-75
2022/05/27 11:51:48;;;;;;;;;0.00;0.00;;;;;;;;5075994;27;45397;-77
2022/05/27 11:54:13;;;;;;;;;2.00;1.67;;;;;;;;5072861;27;45416;-75
2022/05/27 11:56:57;;;;;;;;;0.00;0.00;;;;;;;;5069042;27;46032;-76
2022/05/27 11:59:25;;;;;;;;;1.00;0.67;;;;;;;;5070357;27;45382;-75
2022/05/27 12:01:56;;;;;;;;;1.00;1.00;;;;;;;;5073455;28;45735;-75
2022/05/27 12:05:01;;;;;;;;;0.00;0.00;;;;;;;;5073998;28;45275;-75
2022/05/27 12:07:26;;;;;;;;;2.00;1.00;;;;;;;;5035290;28;46431;-76
2022/05/27 12:10:09;;;;;;;;;1.00;1.00;;;;;;;;5053676;28;45439;-75
2022/05/27 12:12:37;;;;;;;;;1.00;1.00;;;;;;;;5053430;28;45496;-75
2022/05/27 12:15:06;;;;;;;;;2.00;1.00;;;;;;;;5046399;28;45480;-75
2022/05/27 12:17:43;;;;;;;;;1.00;1.00;;;;;;;;5050349;28;46966;-75
2022/05/27 12:20:10;;;;;;;;;0.00;0.00;;;;;;;;5041621;28;45456;-75
2022/05/27 12:22:35;;;;;;;;;1.00;1.00;;;;;;;;5046387;28;45495;-75
2022/05/27 12:25:03;;;;;;;;;1.00;1.00;;;;;;;;5054193;28;45413;-75
2022/05/27 12:27:28;;;;;;;;;0.67;0.67;;;;;;;;5052837;28;45325;-75
2022/05/27 12:29:54;;;;;;;;;0.00;0.00;;;;;;;;5047401;28;45360;-75
2022/05/27 12:32:22;;;;;;;;;0.00;0.00;;;;;;;;5043423;28;45536;-76
2022/05/27 12:34:50;;;;;;;;;0.33;0.33;;;;;;;;5053541;28;45292;-76
2022/05/27 12:37:17;;;;;;;;;1.00;1.00;;;;;;;;5053890;28;45292;-76
2022/05/27 12:39:44;;;;;;;;;0.00;0.00;;;;;;;;5066134;27;45508;-76
2022/05/27 12:42:10;;;;;;;;;0.00;0.00;;;;;;;;5069243;28;45436;-75
2022/05/27 12:44:36;;;;;;;;;0.00;0.00;;;;;;;;5069689;28;45623;-75
2022/05/27 12:47:02;;;;;;;;;0.00;0.00;;;;;;;;5080633;27;45433;-75
2022/05/27 12:49:28;;;;;;;;;1.00;0.00;;;;;;;;5073407;27;45559;-76
2022/05/27 12:51:54;;;;;;;;;0.67;0.67;;;;;;;;5072193;27;45457;-76
2022/05/27 12:54:38;;;;;;;;;1.00;1.00;;;;;;;;5069495;27;45471;-75
2022/05/27 13:03:44;;;;;;;;;1.00;1.00;;;;;;;;5041288;28;45440;-75
2022/05/27 13:06:13;;;;;;;;;0.67;0.67;;;;;;;;5040996;28;45629;-75
2022/05/27 13:08:48;;;;;;;;;0.00;0.00;;;;;;;;5040809;28;46054;-75
2022/05/27 13:11:15;;;;;;;;;1.00;0.00;;;;;;;;5041192;28;45262;-76
2022/05/27 13:13:41;;;;;;;;;0.67;0.67;;;;;;;;5053100;28;45619;-75
2022/05/27 13:16:10;;;;;;;;;0.67;0.67;;;;;;;;5037632;28;45378;-75
2022/05/27 13:18:38;;;;;;;;;0.00;0.00;;;;;;;;5056004;28;47425;-76
2022/05/27 13:21:12;;;;;;;;;0.00;0.00;;;;;;;;5048428;28;45526;-76
2022/05/27 13:23:49;;;;;;;;;0.00;0.00;;;;;;;;5044297;28;45461;-75
2022/05/27 13:26:19;;;;;;;;;2.00;0.00;;;;;;;;5050136;28;45325;-75
2022/05/27 13:28:51;;;;;;;;;1.00;1.00;;;;;;;;5063903;28;46390;-75
2022/05/27 13:31:22;;;;;;;;;2.33;1.00;;;;;;;;5039637;28;45333;-75
2022/05/27 13:33:52;;;;;;;;;0.67;0.67;;;;;;;;5056926;28;45416;-76
2022/05/27 13:36:25;;;;;;;;;1.00;1.00;;;;;;;;5055819;28;45448;-75
2022/05/27 13:38:53;;;;;;;;;1.00;1.00;;;;;;;;5050808;28;45463;-76
2022/05/27 13:41:18;;;;;;;;;2.00;1.00;;;;;;;;5061727;28;45467;-75
2022/05/27 13:43:46;;;;;;;;;1.00;1.00;;;;;;;;5075042;27;45256;-76
2022/05/27 13:46:16;;;;;;;;;0.67;0.67;;;;;;;;5061993;28;45268;-75
2022/05/27 13:48:53;;;;;;;;;0.00;0.00;;;;;;;;5085240;27;47392;-75
2022/05/27 13:51:21;;;;;;;;;1.00;1.00;;;;;;;;5075331;27;45381;-75
2022/05/27 13:53:46;;;;;;;;;1.00;1.00;;;;;;;;5078699;27;45762;-74
2022/05/27 13:56:25;;;;;;;;;1.00;1.00;;;;;;;;5078463;27;45526;-74
2022/05/27 13:58:53;;;;;;;;;0.67;0.00;;;;;;;;5075059;28;45383;-75
2022/05/27 14:01:21;;;;;;;;;1.33;1.33;;;;;;;;5091251;27;45348;-75
2022/05/27 14:03:52;;;;;;;;;0.00;0.00;;;;;;;;5079460;27;45403;-75
2022/05/27 14:06:25;;;;;;;;;0.00;0.00;;;;;;;;5074365;27;45476;-75
2022/05/27 14:08:51;;;;;;;;;0.33;0.00;;;;;;;;5072969;27;45401;-75
2022/05/27 14:11:26;;;;;;;;;1.00;0.67;;;;;;;;5071848;28;45297;-75
2022/05/27 14:13:56;;;;;;;;;1.00;1.00;;;;;;;;5075292;28;45529;-75
2022/05/27 14:16:25;;;;;;;;;0.00;0.00;;;;;;;;5068976;27;45386;-75
2022/05/27 14:18:52;;;;;;;;;1.00;0.00;;;;;;;;5062629;28;47013;-75
2022/05/27 14:24:01;;;;;;;;;0.00;0.00;;;;;;;;5075048;27;45309;-77
2022/05/27 14:26:27;;;;;;;;;0.00;0.00;;;;;;;;5072937;28;45354;-75
2022/05/27 14:28:55;;;;;;;;;0.67;0.00;;;;;;;;5060040;28;46232;-75
2022/05/27 14:31:29;;;;;;;;;0.67;0.67;;;;;;;;5074754;27;45646;-73
2022/05/27 14:33:55;;;;;;;;;0.00;0.00;;;;;;;;5062808;28;45429;-76
2022/05/27 14:36:22;;;;;;;;;0.00;0.00;;;;;;;;5062997;28;45473;-75
2022/05/27 14:38:49;;;;;;;;;1.00;1.00;;;;;;;;5064473;28;46169;-75
2022/05/27 14:41:38;;;;;;;;;0.00;0.00;;;;;;;;5082021;27;45500;-75
2022/05/27 14:44:04;;;;;;;;;1.00;1.00;;;;;;;;5058639;27;45430;-75
2022/05/27 14:46:33;;;;;;;;;0.00;0.00;;;;;;;;5075041;28;45447;-75
2022/05/27 14:49:21;;;;;;;;;0.33;0.33;;;;;;;;5088556;27;46317;-74
2022/05/27 14:51:47;;;;;;;;;1.00;1.00;;;;;;;;5072907;28;45432;-75
2022/05/27 14:54:22;;;;;;;;;1.00;1.00;;;;;;;;5064950;28;45422;-75
2022/05/27 14:56:49;;;;;;;;;0.67;0.67;;;;;;;;5067396;27;45493;-75
2022/05/27 14:59:17;;;;;;;;;0.33;0.33;;;;;;;;5070968;27;47267;-75
2022/05/27 15:01:42;;;;;;;;;0.33;0.33;;;;;;;;5075283;27;45633;-75
2022/05/27 15:04:07;;;;;;;;;0.33;0.33;;;;;;;;5081612;27;45472;-75
2022/05/27 15:06:36;;;;;;;;;0.00;0.00;;;;;;;;5062806;27;45409;-76
2022/05/27 15:09:12;;;;;;;;;1.67;0.00;;;;;;;;5062580;28;46206;-75
2022/05/27 15:11:37;;;;;;;;;0.00;0.00;;;;;;;;5063769;27;45335;-76
2022/05/27 15:14:19;;;;;;;;;0.00;0.00;;;;;;;;5072621;28;45368;-75
2022/05/27 15:16:52;;;;;;;;;0.00;0.00;;;;;;;;5060196;28;45808;-75
2022/05/27 15:19:18;;;;;;;;;0.00;0.00;;;;;;;;5060205;27;47119;-75
2022/05/27 15:21:46;;;;;;;;;1.00;0.67;;;;;;;;5061344;28;45382;-75
2022/05/27 15:24:30;;;;;;;;;0.00;0.00;;;;;;;;5062147;28;45682;-75